sensor_id;sensor_type;location;lat;lon;timestamp;P1;durP1;ratioP1;P2;durP2;ratioP2
51020;SDS011;38907;45.562;8.856;2022-08-21T00:04:53;0.50;;;0.30;;
51020;SDS011;38907;45.562;8.856;2022-08-21T00:09:56;0.20;;;0.20;;
51020;SDS011;38907;45.562;8.856;2022-08-21T00:14:59;0.20;;;0.20;;
51020;SDS011;38907;45.562;8.856;2022-08-21T00:20:03;0.20;;;0.20;;
51020;SDS011;38907;45.562;8.856;2022-08-21T00:25:09;0.63;;;0.20;;
51020;SDS011;38907;45.562;8.856;2022-08-21T00:30:13;0.38;;;0.30;;
51020;SDS011;38907;45.562;8.856;2022-08-21T00:35:20;1.85;;;0.30;;
51020;SDS011;38907;45.562;8.856;2022-08-21T00:40:26;0.30;;;0.28;;
51020;SDS011;38907;45.562;8.856;2022-08-21T00:45:32;0.20;;;0.20;;
51020;SDS011;38907;45.562;8.856;2022-08-21T00:50:38;0.20;;;0.20;;
51020;SDS011;38907;45.562;8.856;2022-08-21T00:55:45;0.30;;;0.22;;
51020;SDS011;38907;45.562;8.856;2022-08-21T01:00:49;5.85;;;0.30;;
51020;SDS011;38907;45.562;8.856;2022-08-21T01:05:54;0.20;;;0.20;;
51020;SDS011;38907;45.562;8.856;2022-08-21T01:10:57;0.57;;;0.28;;
51020;SDS011;38907;45.562;8.856;2022-08-21T01:16:02;0.45;;;0.30;;
51020;SDS011;38907;45.562;8.856;2022-08-21T01:21:12;0.30;;;0.10;;
51020;SDS011;38907;45.562;8.856;2022-08-21T01:26:16;0.35;;;0.20;;
51020;SDS011;38907;45.562;8.856;2022-08-21T01:31:23;0.55;;;0.30;;
51020;SDS011;38907;45.562;8.856;2022-08-21T01:36:29;0.82;;;0.30;;
51020;SDS011;38907;45.562;8.856;2022-08-21T01:41:31;1.30;;;0.30;;
51020;SDS011;38907;45.562;8.856;2022-08-21T01:46:34;0.30;;;0.30;;
51020;SDS011;38907;45.562;8.856;2022-08-21T01:51:38;0.22;;;0.22;;
51020;SDS011;38907;45.562;8.856;2022-08-21T01:56:41;0.15;;;0.10;;
51020;SDS011;38907;45.562;8.856;2022-08-21T02:01:46;0.52;;;0.25;;
51020;SDS011;38907;45.562;8.856;2022-08-21T02:06:50;2.03;;;0.40;;
51020;SDS011;38907;45.562;8.856;2022-08-21T02:11:53;0.28;;;0.20;;
51020;SDS011;38907;45.562;8.856;2022-08-21T02:16:56;3.30;;;0.30;;
51020;SDS011;38907;45.562;8.856;2022-08-21T02:32:05;2.03;;;0.20;;
51020;SDS011;38907;45.562;8.856;2022-08-21T02:37:10;0.40;;;0.30;;
51020;SDS011;38907;45.562;8.856;2022-08-21T02:42:14;0.20;;;0.20;;
51020;SDS011;38907;45.562;8.856;2022-08-21T02:47:16;0.45;;;0.20;;
51020;SDS011;38907;45.562;8.856;2022-08-21T02:52:20;0.30;;;0.30;;
51020;SDS011;38907;45.562;8.856;2022-08-21T02:57:24;0.40;;;0.22;;
51020;SDS011;38907;45.562;8.856;2022-08-21T03:02:27;2.85;;;0.20;;
51020;SDS011;38907;45.562;8.856;2022-08-21T03:12:34;1.77;;;0.30;;
51020;SDS011;38907;45.562;8.856;2022-08-21T03:17:38;0.25;;;0.25;;
51020;SDS011;38907;45.562;8.856;2022-08-21T03:22:42;0.63;;;0.28;;
51020;SDS011;38907;45.562;8.856;2022-08-21T03:27:45;0.20;;;0.20;;
51020;SDS011;38907;45.562;8.856;2022-08-21T03:32:49;0.25;;;0.25;;
51020;SDS011;38907;45.562;8.856;2022-08-21T03:37:54;1.40;;;0.38;;
51020;SDS011;38907;45.562;8.856;2022-08-21T03:42:57;0.20;;;0.20;;
51020;SDS011;38907;45.562;8.856;2022-08-21T03:48:02;0.30;;;0.28;;
51020;SDS011;38907;45.562;8.856;2022-08-21T03:53:07;0.45;;;0.20;;
51020;SDS011;38907;45.562;8.856;2022-08-21T03:58:11;0.60;;;0.20;;
51020;SDS011;38907;45.562;8.856;2022-08-21T04:03:14;0.95;;;0.10;;
51020;SDS011;38907;45.562;8.856;2022-08-21T04:08:19;0.52;;;0.30;;
51020;SDS011;38907;45.562;8.856;2022-08-21T04:13:22;0.47;;;0.30;;
51020;SDS011;38907;45.562;8.856;2022-08-21T04:23:28;0.30;;;0.20;;
51020;SDS011;38907;45.562;8.856;2022-08-21T04:28:31;0.50;;;0.30;;
51020;SDS011;38907;45.562;8.856;2022-08-21T04:33:34;0.52;;;0.20;;
51020;SDS011;38907;45.562;8.856;2022-08-21T04:43:40;0.82;;;0.38;;
51020;SDS011;38907;45.562;8.856;2022-08-21T04:48:43;0.20;;;0.20;;
51020;SDS011;38907;45.562;8.856;2022-08-21T04:58:52;0.43;;;0.22;;
51020;SDS011;38907;45.562;8.856;2022-08-21T05:03:58;4.35;;;0.30;;
51020;SDS011;38907;45.562;8.856;2022-08-21T05:09:04;0.20;;;0.20;;
51020;SDS011;38907;45.562;8.856;2022-08-21T05:14:06;0.60;;;0.40;;
51020;SDS011;38907;45.562;8.856;2022-08-21T05:19:09;0.47;;;0.30;;
51020;SDS011;38907;45.562;8.856;2022-08-21T05:24:13;0.25;;;0.20;;
51020;SDS011;38907;45.562;8.856;2022-08-21T05:29:18;0.30;;;0.30;;
51020;SDS011;38907;45.562;8.856;2022-08-21T05:34:21;0.47;;;0.30;;
51020;SDS011;38907;45.562;8.856;2022-08-21T05:39:26;1.88;;;0.35;;
51020;SDS011;38907;45.562;8.856;2022-08-21T05:44:28;0.77;;;0.30;;
51020;SDS011;38907;45.562;8.856;2022-08-21T05:49:32;1.83;;;0.30;;
51020;SDS011;38907;45.562;8.856;2022-08-21T05:54:37;0.63;;;0.40;;
51020;SDS011;38907;45.562;8.856;2022-08-21T05:59:39;0.40;;;0.30;;
51020;SDS011;38907;45.562;8.856;2022-08-21T06:04:42;0.90;;;0.30;;
51020;SDS011;38907;45.562;8.856;2022-08-21T06:09:46;0.63;;;0.30;;
51020;SDS011;38907;45.562;8.856;2022-08-21T06:14:49;0.85;;;0.40;;
51020;SDS011;38907;45.562;8.856;2022-08-21T06:19:52;1.13;;;0.28;;
51020;SDS011;38907;45.562;8.856;2022-08-21T06:24:57;0.40;;;0.30;;
51020;SDS011;38907;45.562;8.856;2022-08-21T06:30:00;0.43;;;0.20;;
51020;SDS011;38907;45.562;8.856;2022-08-21T06:35:03;0.95;;;0.20;;
51020;SDS011;38907;45.562;8.856;2022-08-21T06:40:09;1.48;;;0.40;;
51020;SDS011;38907;45.562;8.856;2022-08-21T06:45:12;0.10;;;0.10;;
51020;SDS011;38907;45.562;8.856;2022-08-21T06:50:15;2.42;;;0.38;;
51020;SDS011;38907;45.562;8.856;2022-08-21T06:55:21;1.50;;;0.40;;
51020;SDS011;38907;45.562;8.856;2022-08-21T07:00:24;0.55;;;0.20;;
51020;SDS011;38907;45.562;8.856;2022-08-21T07:05:28;2.47;;;0.30;;
51020;SDS011;38907;45.562;8.856;2022-08-21T07:10:32;1.35;;;0.25;;
51020;SDS011;38907;45.562;8.856;2022-08-21T07:15:35;0.20;;;0.20;;
51020;SDS011;38907;45.562;8.856;2022-08-21T07:20:38;0.22;;;0.20;;
51020;SDS011;38907;45.562;8.856;2022-08-21T07:25:43;1.40;;;0.13;;
51020;SDS011;38907;45.562;8.856;2022-08-21T07:30:46;0.20;;;0.20;;
51020;SDS011;38907;45.562;8.856;2022-08-21T07:35:53;1.13;;;0.35;;
51020;SDS011;38907;45.562;8.856;2022-08-21T07:40:58;0.10;;;0.10;;
51020;SDS011;38907;45.562;8.856;2022-08-21T07:46:03;3.72;;;0.20;;
51020;SDS011;38907;45.562;8.856;2022-08-21T07:51:07;0.32;;;0.20;;
51020;SDS011;38907;45.562;8.856;2022-08-21T07:56:13;1.00;;;0.10;;
51020;SDS011;38907;45.562;8.856;2022-08-21T08:01:16;0.10;;;0.10;;
51020;SDS011;38907;45.562;8.856;2022-08-21T08:06:19;0.40;;;0.20;;
51020;SDS011;38907;45.562;8.856;2022-08-21T08:11:23;0.50;;;0.10;;
51020;SDS011;38907;45.562;8.856;2022-08-21T08:16:26;0.20;;;0.20;;
51020;SDS011;38907;45.562;8.856;2022-08-21T08:21:29;0.28;;;0.20;;
51020;SDS011;38907;45.562;8.856;2022-08-21T08:26:34;0.55;;;0.30;;
51020;SDS011;38907;45.562;8.856;2022-08-21T08:31:36;1.08;;;0.30;;
51020;SDS011;38907;45.562;8.856;2022-08-21T08:36:39;0.75;;;0.45;;
51020;SDS011;38907;45.562;8.856;2022-08-21T08:41:43;0.10;;;0.10;;
51020;SDS011;38907;45.562;8.856;2022-08-21T08:46:51;0.45;;;0.30;;
51020;SDS011;38907;45.562;8.856;2022-08-21T08:51:55;1.75;;;0.38;;
51020;SDS011;38907;45.562;8.856;2022-08-21T08:57:03;0.40;;;0.40;;
51020;SDS011;38907;45.562;8.856;2022-08-21T09:02:17;0.50;;;0.50;;
51020;SDS011;38907;45.562;8.856;2022-08-21T09:07:25;1.30;;;0.50;;
51020;SDS011;38907;45.562;8.856;2022-08-21T09:12:43;0.70;;;0.70;;
51020;SDS011;38907;45.562;8.856;2022-08-21T09:17:48;1.38;;;0.50;;
51020;SDS011;38907;45.562;8.856;2022-08-21T09:23:13;0.68;;;0.60;;
51020;SDS011;38907;45.562;8.856;2022-08-21T09:28:27;0.82;;;0.73;;
51020;SDS011;38907;45.562;8.856;2022-08-21T09:33:35;1.67;;;0.70;;
51020;SDS011;38907;45.562;8.856;2022-08-21T09:38:37;0.75;;;0.70;;
51020;SDS011;38907;45.562;8.856;2022-08-21T09:43:51;1.13;;;0.70;;
51020;SDS011;38907;45.562;8.856;2022-08-21T09:48:58;2.63;;;0.75;;
51020;SDS011;38907;45.562;8.856;2022-08-21T09:54:10;0.65;;;0.60;;
51020;SDS011;38907;45.562;8.856;2022-08-21T09:59:33;0.75;;;0.60;;
51020;SDS011;38907;45.562;8.856;2022-08-21T10:04:37;2.30;;;0.60;;
51020;SDS011;38907;45.562;8.856;2022-08-21T10:09:42;0.85;;;0.68;;
51020;SDS011;38907;45.562;8.856;2022-08-21T10:14:48;1.05;;;0.68;;
51020;SDS011;38907;45.562;8.856;2022-08-21T10:19:59;1.38;;;0.80;;
51020;SDS011;38907;45.562;8.856;2022-08-21T10:25:08;3.58;;;0.70;;
51020;SDS011;38907;45.562;8.856;2022-08-21T10:30:32;2.85;;;0.70;;
51020;SDS011;38907;45.562;8.856;2022-08-21T10:35:42;1.20;;;0.70;;
51020;SDS011;38907;45.562;8.856;2022-08-21T10:40:56;0.90;;;0.70;;
51020;SDS011;38907;45.562;8.856;2022-08-21T10:46:10;0.60;;;0.50;;
51020;SDS011;38907;45.562;8.856;2022-08-21T10:51:26;2.67;;;0.80;;
51020;SDS011;38907;45.562;8.856;2022-08-21T10:56:38;0.60;;;0.60;;
51020;SDS011;38907;45.562;8.856;2022-08-21T11:01:55;2.35;;;0.77;;
51020;SDS011;38907;45.562;8.856;2022-08-21T11:07:02;0.60;;;0.60;;
51020;SDS011;38907;45.562;8.856;2022-08-21T11:12:11;0.80;;;0.50;;
51020;SDS011;38907;45.562;8.856;2022-08-21T11:17:24;2.28;;;1.00;;
51020;SDS011;38907;45.562;8.856;2022-08-21T11:22:36;0.93;;;0.68;;
51020;SDS011;38907;45.562;8.856;2022-08-21T11:27:43;2.35;;;0.82;;
51020;SDS011;38907;45.562;8.856;2022-08-21T11:38:25;1.60;;;0.70;;
51020;SDS011;38907;45.562;8.856;2022-08-21T11:43:33;0.88;;;0.80;;
51020;SDS011;38907;45.562;8.856;2022-08-21T11:48:43;4.53;;;0.88;;
51020;SDS011;38907;45.562;8.856;2022-08-21T11:53:56;3.55;;;0.85;;
51020;SDS011;38907;45.562;8.856;2022-08-21T12:04:18;1.10;;;0.70;;
51020;SDS011;38907;45.562;8.856;2022-08-21T12:09:31;0.60;;;0.60;;
51020;SDS011;38907;45.562;8.856;2022-08-21T12:14:37;0.93;;;0.65;;
51020;SDS011;38907;45.562;8.856;2022-08-21T12:19:43;1.23;;;0.70;;
51020;SDS011;38907;45.562;8.856;2022-08-21T12:24:48;2.35;;;0.65;;
51020;SDS011;38907;45.562;8.856;2022-08-21T12:29:52;4.15;;;1.35;;
51020;SDS011;38907;45.562;8.856;2022-08-21T12:35:01;0.88;;;0.60;;
51020;SDS011;38907;45.562;8.856;2022-08-21T12:40:10;1.33;;;0.75;;
51020;SDS011;38907;45.562;8.856;2022-08-21T12:45:21;1.52;;;0.73;;
51020;SDS011;38907;45.562;8.856;2022-08-21T12:50:37;1.88;;;0.82;;
51020;SDS011;38907;45.562;8.856;2022-08-21T12:55:43;1.45;;;0.65;;
51020;SDS011;38907;45.562;8.856;2022-08-21T13:00:49;1.38;;;0.90;;
51020;SDS011;38907;45.562;8.856;2022-08-21T13:05:55;2.05;;;0.70;;
51020;SDS011;38907;45.562;8.856;2022-08-21T13:11:00;3.45;;;0.70;;
51020;SDS011;38907;45.562;8.856;2022-08-21T13:16:06;0.77;;;0.63;;
51020;SDS011;38907;45.562;8.856;2022-08-21T13:21:12;2.60;;;1.05;;
51020;SDS011;38907;45.562;8.856;2022-08-21T13:26:17;1.38;;;0.90;;
51020;SDS011;38907;45.562;8.856;2022-08-21T13:31:24;1.33;;;0.80;;
51020;SDS011;38907;45.562;8.856;2022-08-21T13:36:34;4.07;;;0.73;;
51020;SDS011;38907;45.562;8.856;2022-08-21T13:41:39;1.38;;;0.80;;
51020;SDS011;38907;45.562;8.856;2022-08-21T13:46:44;0.88;;;0.70;;
51020;SDS011;38907;45.562;8.856;2022-08-21T13:51:50;2.85;;;0.90;;
51020;SDS011;38907;45.562;8.856;2022-08-21T13:56:53;1.45;;;0.90;;
51020;SDS011;38907;45.562;8.856;2022-08-21T14:01:57;0.68;;;0.63;;
51020;SDS011;38907;45.562;8.856;2022-08-21T14:07:14;1.40;;;0.70;;
51020;SDS011;38907;45.562;8.856;2022-08-21T14:12:19;0.82;;;0.60;;
51020;SDS011;38907;45.562;8.856;2022-08-21T14:17:29;1.33;;;0.77;;
51020;SDS011;38907;45.562;8.856;2022-08-21T14:22:38;0.70;;;0.68;;
51020;SDS011;38907;45.562;8.856;2022-08-21T14:27:44;0.65;;;0.65;;
51020;SDS011;38907;45.562;8.856;2022-08-21T14:32:53;0.88;;;0.70;;
51020;SDS011;38907;45.562;8.856;2022-08-21T14:37:57;0.73;;;0.70;;
51020;SDS011;38907;45.562;8.856;2022-08-21T14:43:00;0.82;;;0.60;;
51020;SDS011;38907;45.562;8.856;2022-08-21T14:48:02;1.00;;;0.70;;
51020;SDS011;38907;45.562;8.856;2022-08-21T14:53:07;1.25;;;0.70;;
51020;SDS011;38907;45.562;8.856;2022-08-21T14:58:09;1.05;;;0.70;;
51020;SDS011;38907;45.562;8.856;2022-08-21T15:03:12;0.70;;;0.70;;
51020;SDS011;38907;45.562;8.856;2022-08-21T15:08:16;1.00;;;0.88;;
51020;SDS011;38907;45.562;8.856;2022-08-21T15:13:19;1.92;;;0.80;;
51020;SDS011;38907;45.562;8.856;2022-08-21T15:18:23;0.80;;;0.80;;
51020;SDS011;38907;45.562;8.856;2022-08-21T15:23:29;1.08;;;0.63;;
51020;SDS011;38907;45.562;8.856;2022-08-21T15:28:33;0.80;;;0.80;;
51020;SDS011;38907;45.562;8.856;2022-08-21T15:33:36;0.98;;;0.80;;
51020;SDS011;38907;45.562;8.856;2022-08-21T15:38:41;0.82;;;0.70;;
51020;SDS011;38907;45.562;8.856;2022-08-21T15:43:45;1.35;;;0.80;;
51020;SDS011;38907;45.562;8.856;2022-08-21T15:48:50;1.00;;;0.68;;
51020;SDS011;38907;45.562;8.856;2022-08-21T15:53:54;8.25;;;0.80;;
51020;SDS011;38907;45.562;8.856;2022-08-21T15:58:58;1.20;;;0.60;;
51020;SDS011;38907;45.562;8.856;2022-08-21T16:04:03;0.70;;;0.70;;
51020;SDS011;38907;45.562;8.856;2022-08-21T16:09:09;0.98;;;0.73;;
51020;SDS011;38907;45.562;8.856;2022-08-21T16:14:12;0.85;;;0.63;;
51020;SDS011;38907;45.562;8.856;2022-08-21T16:19:17;1.00;;;0.70;;
51020;SDS011;38907;45.562;8.856;2022-08-21T16:24:22;2.00;;;0.80;;
51020;SDS011;38907;45.562;8.856;2022-08-21T16:29:25;3.40;;;0.70;;
51020;SDS011;38907;45.562;8.856;2022-08-21T16:34:31;2.45;;;0.65;;
51020;SDS011;38907;45.562;8.856;2022-08-21T16:39:35;0.98;;;0.55;;
51020;SDS011;38907;45.562;8.856;2022-08-21T16:44:38;0.70;;;0.50;;
51020;SDS011;38907;45.562;8.856;2022-08-21T16:49:41;0.60;;;0.60;;
51020;SDS011;38907;45.562;8.856;2022-08-21T16:54:47;1.13;;;0.70;;
51020;SDS011;38907;45.562;8.856;2022-08-21T16:59:49;9.10;;;0.70;;
51020;SDS011;38907;45.562;8.856;2022-08-21T17:04:53;1.05;;;0.70;;
51020;SDS011;38907;45.562;8.856;2022-08-21T17:09:58;2.80;;;0.75;;
51020;SDS011;38907;45.562;8.856;2022-08-21T17:15:03;2.05;;;1.10;;
51020;SDS011;38907;45.562;8.856;2022-08-21T17:20:07;1.70;;;0.80;;
51020;SDS011;38907;45.562;8.856;2022-08-21T17:25:12;1.17;;;0.63;;
51020;SDS011;38907;45.562;8.856;2022-08-21T17:30:15;2.40;;;0.80;;
51020;SDS011;38907;45.562;8.856;2022-08-21T17:35:19;0.75;;;0.70;;
51020;SDS011;38907;45.562;8.856;2022-08-21T17:40:23;0.57;;;0.57;;
51020;SDS011;38907;45.562;8.856;2022-08-21T17:45:26;1.00;;;0.60;;
51020;SDS011;38907;45.562;8.856;2022-08-21T17:50:29;2.88;;;0.75;;
51020;SDS011;38907;45.562;8.856;2022-08-21T17:55:33;0.73;;;0.60;;
51020;SDS011;38907;45.562;8.856;2022-08-21T18:00:37;4.32;;;0.70;;
51020;SDS011;38907;45.562;8.856;2022-08-21T18:05:42;0.73;;;0.65;;
51020;SDS011;38907;45.562;8.856;2022-08-21T18:10:48;2.53;;;0.68;;
51020;SDS011;38907;45.562;8.856;2022-08-21T18:15:52;1.13;;;0.50;;
51020;SDS011;38907;45.562;8.856;2022-08-21T18:20:55;8.48;;;1.25;;
51020;SDS011;38907;45.562;8.856;2022-08-21T18:25:59;6.32;;;0.93;;
51020;SDS011;38907;45.562;8.856;2022-08-21T18:31:02;6.55;;;1.35;;
51020;SDS011;38907;45.562;8.856;2022-08-21T18:36:05;2.92;;;0.70;;
51020;SDS011;38907;45.562;8.856;2022-08-21T18:41:09;5.18;;;0.98;;
51020;SDS011;38907;45.562;8.856;2022-08-21T18:46:12;0.65;;;0.52;;
51020;SDS011;38907;45.562;8.856;2022-08-21T18:51:15;0.88;;;0.63;;
51020;SDS011;38907;45.562;8.856;2022-08-21T18:56:19;4.07;;;1.05;;
51020;SDS011;38907;45.562;8.856;2022-08-21T19:01:22;2.55;;;1.02;;
51020;SDS011;38907;45.562;8.856;2022-08-21T19:06:25;5.32;;;2.00;;
51020;SDS011;38907;45.562;8.856;2022-08-21T19:11:29;4.47;;;2.20;;
51020;SDS011;38907;45.562;8.856;2022-08-21T19:16:35;7.65;;;4.70;;
51020;SDS011;38907;45.562;8.856;2022-08-21T19:21:39;5.63;;;4.25;;
51020;SDS011;38907;45.562;8.856;2022-08-21T19:26:43;8.93;;;4.10;;
51020;SDS011;38907;45.562;8.856;2022-08-21T19:31:46;2.30;;;1.25;;
51020;SDS011;38907;45.562;8.856;2022-08-21T19:36:49;1.80;;;1.08;;
51020;SDS011;38907;45.562;8.856;2022-08-21T19:41:57;0.93;;;0.77;;
51020;SDS011;38907;45.562;8.856;2022-08-21T19:47:00;2.90;;;1.10;;
51020;SDS011;38907;45.562;8.856;2022-08-21T19:52:03;1.75;;;0.90;;
51020;SDS011;38907;45.562;8.856;2022-08-21T19:57:07;1.08;;;0.90;;
51020;SDS011;38907;45.562;8.856;2022-08-21T20:02:11;1.70;;;1.00;;
51020;SDS011;38907;45.562;8.856;2022-08-21T20:07:16;3.45;;;1.02;;
51020;SDS011;38907;45.562;8.856;2022-08-21T20:12:20;4.20;;;1.20;;
51020;SDS011;38907;45.562;8.856;2022-08-21T20:17:23;4.47;;;1.27;;
51020;SDS011;38907;45.562;8.856;2022-08-21T20:22:26;2.30;;;1.10;;
51020;SDS011;38907;45.562;8.856;2022-08-21T20:27:29;3.67;;;1.13;;
51020;SDS011;38907;45.562;8.856;2022-08-21T20:32:32;2.90;;;1.50;;
51020;SDS011;38907;45.562;8.856;2022-08-21T20:37:34;5.38;;;1.90;;
51020;SDS011;38907;45.562;8.856;2022-08-21T20:42:39;2.10;;;1.48;;
51020;SDS011;38907;45.562;8.856;2022-08-21T20:47:42;3.33;;;1.23;;
51020;SDS011;38907;45.562;8.856;2022-08-21T20:52:45;4.32;;;1.77;;
51020;SDS011;38907;45.562;8.856;2022-08-21T20:57:55;2.33;;;1.40;;
51020;SDS011;38907;45.562;8.856;2022-08-21T21:03:05;1.98;;;1.45;;
51020;SDS011;38907;45.562;8.856;2022-08-21T21:08:13;6.13;;;1.60;;
51020;SDS011;38907;45.562;8.856;2022-08-21T21:13:22;2.60;;;1.50;;
51020;SDS011;38907;45.562;8.856;2022-08-21T21:18:29;3.25;;;1.52;;
51020;SDS011;38907;45.562;8.856;2022-08-21T21:23:38;3.53;;;1.90;;
51020;SDS011;38907;45.562;8.856;2022-08-21T21:28:47;4.75;;;1.88;;
51020;SDS011;38907;45.562;8.856;2022-08-21T21:33:55;4.15;;;1.85;;
51020;SDS011;38907;45.562;8.856;2022-08-21T21:39:02;3.92;;;2.22;;
51020;SDS011;38907;45.562;8.856;2022-08-21T21:44:22;3.47;;;2.17;;
51020;SDS011;38907;45.562;8.856;2022-08-21T21:49:51;5.88;;;2.28;;
51020;SDS011;38907;45.562;8.856;2022-08-21T21:55:14;3.42;;;2.08;;
51020;SDS011;38907;45.562;8.856;2022-08-21T22:00:27;4.35;;;2.00;;
51020;SDS011;38907;45.562;8.856;2022-08-21T22:05:36;3.13;;;1.80;;
51020;SDS011;38907;45.562;8.856;2022-08-21T22:10:50;2.08;;;1.88;;
51020;SDS011;38907;45.562;8.856;2022-08-21T22:15:59;5.32;;;1.63;;
51020;SDS011;38907;45.562;8.856;2022-08-21T22:21:07;2.83;;;1.67;;
51020;SDS011;38907;45.562;8.856;2022-08-21T22:26:14;1.90;;;1.70;;
51020;SDS011;38907;45.562;8.856;2022-08-21T22:31:22;4.25;;;1.90;;
51020;SDS011;38907;45.562;8.856;2022-08-21T22:36:30;3.78;;;1.98;;
51020;SDS011;38907;45.562;8.856;2022-08-21T22:41:37;9.70;;;1.60;;
51020;SDS011;38907;45.562;8.856;2022-08-21T22:46:43;1.40;;;1.30;;
51020;SDS011;38907;45.562;8.856;2022-08-21T22:51:52;1.58;;;1.30;;
51020;SDS011;38907;45.562;8.856;2022-08-21T22:57:06;1.30;;;1.15;;
51020;SDS011;38907;45.562;8.856;2022-08-21T23:02:21;4.30;;;1.38;;
51020;SDS011;38907;45.562;8.856;2022-08-21T23:07:32;1.70;;;1.40;;
51020;SDS011;38907;45.562;8.856;2022-08-21T23:12:37;2.45;;;1.35;;
51020;SDS011;38907;45.562;8.856;2022-08-21T23:17:44;1.55;;;1.20;;
51020;SDS011;38907;45.562;8.856;2022-08-21T23:22:56;2.10;;;1.42;;
51020;SDS011;38907;45.562;8.856;2022-08-21T23:28:05;1.80;;;1.50;;
51020;SDS011;38907;45.562;8.856;2022-08-21T23:33:23;6.88;;;1.88;;
51020;SDS011;38907;45.562;8.856;2022-08-21T23:38:40;2.67;;;1.80;;
51020;SDS011;38907;45.562;8.856;2022-08-21T23:44:00;2.03;;;1.73;;
51020;SDS011;38907;45.562;8.856;2022-08-21T23:49:12;2.22;;;1.65;;
51020;SDS011;38907;45.562;8.856;2022-08-21T23:54:25;2.00;;;1.20;;
51020;SDS011;38907;45.562;8.856;2022-08-21T23:59:37;2.42;;;1.30;;
